PWSweather.com
Personal Weather Stations
Station Observations
STPETERS
BroadstairsGB

BroadstairsGB

Lat: 51.37, Lon: 1.423

Elevation: 141

Station Type: WH1081

Latest ConditionsUpdated 11:45:04 PM GMT Saturday, Dec 3, 2016
Currently Today's Max Today's Min Today's Average
Temperature 40.8°F4.9°C 44.2°F6.8°C 40.8°F4.9°C 42.9°F6.1°C
Dew Point 32.5°F0.3°C 39.2°F4.0°C 32.2°F0.1°C 35.0°F1.7°C
Winds 9.8 mph N15.8 kmh N 12.0 mph N19.3 kmh N - 7.9 mph 12.7 kmh
Wind Gusts 13.0 mph20.9 kmh 18.3 mph29.5 kmh - -
Humidity 72% 83% 68% 74%
Pressure 30.28 in1025.4 mb 30.69 in1039.3 mb 30.28 in1025.4 mb -
Precipitation - 0.07 in1.8 mm - -
Hour Temp Dew Point Humidity Winds Wind Gusts Pressure Precip Precip Rate Daily Precip Total
11:45 PM 40.8°F4.9°C 32.5°F0.3°C 72% 9.8 mph N15.8 kmh N 13.0 mph20.9 kmh 30.28 in1025.4 mb 0.00 in0.0 mm 0.00 in0.0 mm 0.07 in1.8 mm
11:30 PM 41.0°F5.0°C 32.3°F0.2°C 71% 9.0 mph SW14.5 kmh SW 13.0 mph20.9 kmh 30.28 in1025.4 mb 0.00 in0.0 mm 0.00 in0.0 mm 0.07 in1.8 mm
11:15 PM 41.2°F5.1°C 32.5°F0.3°C 71% 9.5 mph NW15.3 kmh NW 13.6 mph21.9 kmh 30.28 in1025.4 mb 0.00 in0.0 mm 0.00 in0.0 mm 0.07 in1.8 mm
11:00 PM 41.2°F5.1°C 32.2°F0.1°C 70% 9.1 mph WNW14.6 kmh WNW 17.4 mph28.0 kmh 30.28 in1025.4 mb 0.00 in0.0 mm 0.00 in0.0 mm 0.07 in1.8 mm
10:45 PM 41.2°F5.1°C 32.2°F0.1°C 70% 10.3 mph NW16.6 kmh NW 16.8 mph27.0 kmh 30.28 in1025.4 mb 0.00 in0.0 mm 0.00 in0.0 mm 0.07 in1.8 mm
10:30 PM 41.2°F5.1°C 32.2°F0.1°C 70% 9.3 mph NNW15.0 kmh NNW 13.0 mph20.9 kmh 30.28 in1025.4 mb 0.00 in0.0 mm 0.00 in0.0 mm 0.07 in1.8 mm
10:15 PM 41.2°F5.1°C 32.2°F0.1°C 70% 11.3 mph SW18.2 kmh SW 16.8 mph27.0 kmh 30.28 in1025.4 mb 0.00 in0.0 mm 0.00 in0.0 mm 0.07 in1.8 mm
10:00 PM 41.2°F5.1°C 32.2°F0.1°C 70% 9.8 mph S15.8 kmh S 15.9 mph25.6 kmh 30.28 in1025.4 mb 0.00 in0.0 mm 0.00 in0.0 mm 0.07 in1.8 mm
09:45 PM 41.2°F5.1°C 32.2°F0.1°C 70% 8.3 mph NW13.4 kmh NW 11.4 mph18.3 kmh 30.28 in1025.4 mb 0.00 in0.0 mm 0.00 in0.0 mm 0.07 in1.8 mm
09:30 PM 41.4°F5.2°C 32.7°F0.4°C 71% 11.3 mph N18.2 kmh N 15.2 mph24.5 kmh 30.28 in1025.4 mb 0.00 in0.0 mm 0.00 in0.0 mm 0.07 in1.8 mm
09:15 PM 41.5°F5.3°C 32.9°F0.5°C 71% 9.7 mph NNW15.6 kmh NNW 13.6 mph21.9 kmh 30.29 in1025.7 mb 0.00 in0.0 mm 0.00 in0.0 mm 0.07 in1.8 mm
09:00 PM 41.5°F5.3°C 32.9°F0.5°C 71% 10.9 mph W17.5 kmh W 15.9 mph25.6 kmh 30.29 in1025.7 mb 0.00 in0.0 mm 0.00 in0.0 mm 0.07 in1.8 mm
08:45 PM 41.5°F5.3°C 32.9°F0.5°C 71% 9.8 mph WSW15.8 kmh WSW 12.1 mph19.5 kmh 30.29 in1025.7 mb 0.00 in0.0 mm 0.00 in0.0 mm 0.07 in1.8 mm
08:30 PM 41.7°F5.4°C 33.4°F0.8°C 72% 11.8 mph NNW19.0 kmh NNW 16.8 mph27.0 kmh 30.29 in1025.7 mb 0.00 in0.0 mm 0.00 in0.0 mm 0.07 in1.8 mm
08:15 PM 41.7°F5.4°C 33.4°F0.8°C 72% 10.3 mph NW16.6 kmh NW 16.8 mph27.0 kmh 30.28 in1025.4 mb 0.00 in0.0 mm 0.00 in0.0 mm 0.07 in1.8 mm
08:00 PM 41.7°F5.4°C 33.4°F0.8°C 72% 10.7 mph W17.2 kmh W 17.4 mph28.0 kmh 30.28 in1025.4 mb 0.00 in0.0 mm 0.00 in0.0 mm 0.07 in1.8 mm
07:45 PM 41.7°F5.4°C 33.4°F0.8°C 72% 11.5 mph WSW18.5 kmh WSW 15.9 mph25.6 kmh 30.28 in1025.4 mb 0.00 in0.0 mm 0.00 in0.0 mm 0.07 in1.8 mm
07:30 PM 41.7°F5.4°C 33.0°F0.6°C 71% 10.2 mph NNW16.4 kmh NNW 15.9 mph25.6 kmh 30.28 in1025.4 mb 0.00 in0.0 mm 0.00 in0.0 mm 0.07 in1.8 mm
07:15 PM 41.7°F5.4°C 33.0°F0.6°C 71% 10.4 mph NNW16.7 kmh NNW 16.8 mph27.0 kmh 30.28 in1025.4 mb 0.00 in0.0 mm 0.00 in0.0 mm 0.07 in1.8 mm
07:00 PM 41.9°F5.5°C 33.2°F0.7°C 71% 9.9 mph NW15.9 kmh NW 15.2 mph24.5 kmh 30.28 in1025.4 mb 0.00 in0.0 mm 0.00 in0.0 mm 0.07 in1.8 mm
06:45 PM 41.9°F5.5°C 33.2°F0.7°C 71% 12.0 mph N19.3 kmh N 17.4 mph28.0 kmh 30.28 in1025.4 mb 0.00 in0.0 mm 0.00 in0.0 mm 0.07 in1.8 mm
06:30 PM 42.1°F5.6°C 33.7°F0.9°C 72% 10.0 mph SW16.1 kmh SW 13.0 mph20.9 kmh 30.29 in1025.7 mb 0.00 in0.0 mm 0.00 in0.0 mm 0.07 in1.8 mm
06:15 PM 41.9°F5.5°C 33.5°F0.8°C 72% 10.2 mph SSW16.4 kmh SSW 13.0 mph20.9 kmh 30.29 in1025.7 mb 0.00 in0.0 mm 0.00 in0.0 mm 0.07 in1.8 mm
06:00 PM 41.9°F5.5°C 33.5°F0.8°C 72% 9.8 mph WNW15.8 kmh WNW 14.5 mph23.3 kmh 30.29 in1025.7 mb 0.00 in0.0 mm 0.00 in0.0 mm 0.07 in1.8 mm
05:45 PM 41.9°F5.5°C 33.2°F0.7°C 71% 9.4 mph WSW15.1 kmh WSW 14.5 mph23.3 kmh 30.28 in1025.4 mb 0.00 in0.0 mm 0.00 in0.0 mm 0.07 in1.8 mm
05:30 PM 41.7°F5.4°C 33.0°F0.6°C 71% 9.2 mph S14.8 kmh S 14.5 mph23.3 kmh 30.28 in1025.4 mb 0.00 in0.0 mm 0.00 in0.0 mm 0.07 in1.8 mm
05:15 PM 41.9°F5.5°C 33.2°F0.7°C 71% 10.2 mph NW16.4 kmh NW 13.6 mph21.9 kmh 30.30 in1026.1 mb 0.00 in0.0 mm 0.00 in0.0 mm 0.07 in1.8 mm
05:00 PM 41.9°F5.5°C 33.2°F0.7°C 71% 9.3 mph N15.0 kmh N 13.0 mph20.9 kmh 30.30 in1026.1 mb 0.00 in0.0 mm 0.00 in0.0 mm 0.07 in1.8 mm
04:45 PM 41.9°F5.5°C 33.2°F0.7°C 71% 9.3 mph NNW15.0 kmh NNW 13.6 mph21.9 kmh 30.30 in1026.1 mb 0.00 in0.0 mm 0.00 in0.0 mm 0.07 in1.8 mm
04:30 PM 41.9°F5.5°C 32.8°F0.4°C 70% 10.2 mph NW16.4 kmh NW 18.3 mph29.5 kmh 30.29 in1025.7 mb 0.00 in0.0 mm 0.00 in0.0 mm 0.07 in1.8 mm
04:15 PM 41.9°F5.5°C 32.8°F0.4°C 70% 8.4 mph NW13.5 kmh NW 11.4 mph18.3 kmh 30.30 in1026.1 mb 0.00 in0.0 mm 0.00 in0.0 mm 0.07 in1.8 mm
04:00 PM 42.3°F5.7°C 33.2°F0.7°C 70% 9.0 mph W14.5 kmh W 16.8 mph27.0 kmh 30.30 in1026.1 mb 0.00 in0.0 mm 0.00 in0.0 mm 0.07 in1.8 mm
03:51 PM 43.9°F6.6°C 34.4°F1.3°C 69% 8.1 mph W13.0 kmh W 10.7 mph17.2 kmh 30.30 in1026.1 mb 0.00 in0.0 mm 0.00 in0.0 mm 0.06 in1.5 mm
03:50 PM 42.4°F5.8°C 33.3°F0.7°C 70% 10.4 mph N16.7 kmh N 11.4 mph18.3 kmh 30.30 in1026.1 mb 0.00 in0.0 mm 0.00 in0.0 mm 0.07 in1.8 mm
03:45 PM 42.4°F5.8°C 33.3°F0.7°C 70% 11.0 mph N17.7 kmh N 11.4 mph18.3 kmh 30.29 in1025.7 mb 0.00 in0.0 mm 0.00 in0.0 mm 0.07 in1.8 mm
03:40 PM 42.4°F5.8°C 33.3°F0.7°C 70% 10.4 mph N16.7 kmh N 11.4 mph18.3 kmh 30.30 in1026.1 mb 0.00 in0.0 mm 0.00 in0.0 mm 0.07 in1.8 mm
01:00 PM 43.9°F6.6°C 34.4°F1.3°C 69% 9.5 mph WSW15.3 kmh WSW 13.6 mph21.9 kmh 30.30 in1026.1 mb 0.00 in0.0 mm 0.00 in0.0 mm 0.06 in1.5 mm
12:45 PM 44.1°F6.7°C 34.6°F1.4°C 69% 8.2 mph NW13.2 kmh NW 13.0 mph20.9 kmh 30.31 in1026.4 mb 0.00 in0.0 mm 0.00 in0.0 mm 0.06 in1.5 mm
12:30 PM 44.2°F6.8°C 35.1°F1.7°C 70% 8.4 mph NW13.5 kmh NW 13.6 mph21.9 kmh 30.31 in1026.4 mb 0.00 in0.0 mm 0.00 in0.0 mm 0.06 in1.5 mm
12:15 PM 44.2°F6.8°C 35.1°F1.7°C 70% 8.6 mph W13.8 kmh W 12.1 mph19.5 kmh 30.31 in1026.4 mb 0.00 in0.0 mm 0.00 in0.0 mm 0.06 in1.5 mm
12:00 PM 44.2°F6.8°C 35.1°F1.7°C 70% 7.9 mph SSW12.7 kmh SSW 11.4 mph18.3 kmh 30.31 in1026.4 mb 0.00 in0.0 mm 0.00 in0.0 mm 0.06 in1.5 mm
11:45 AM 44.1°F6.7°C 34.9°F1.6°C 70% 7.7 mph SW12.4 kmh SW 12.1 mph19.5 kmh 30.31 in1026.4 mb 0.00 in0.0 mm 0.00 in0.0 mm 0.06 in1.5 mm
11:30 AM 43.9°F6.6°C 34.7°F1.5°C 70% 7.4 mph SW11.9 kmh SW 8.3 mph13.4 kmh 30.31 in1026.4 mb 0.00 in0.0 mm 0.00 in0.0 mm 0.06 in1.5 mm
11:15 AM 43.9°F6.6°C 34.7°F1.5°C 70% 8.8 mph W14.2 kmh W 10.7 mph17.2 kmh 30.31 in1026.4 mb 0.00 in0.0 mm 0.00 in0.0 mm 0.06 in1.5 mm
11:00 AM 43.9°F6.6°C 35.1°F1.7°C 71% 6.7 mph NW10.8 kmh NW 11.4 mph18.3 kmh 30.68 in1038.9 mb 0.00 in0.0 mm 0.00 in0.0 mm 0.06 in1.5 mm
10:45 AM 43.9°F6.6°C 35.4°F1.9°C 72% 8.1 mph W13.0 kmh W 11.4 mph18.3 kmh 30.68 in1038.9 mb 0.00 in0.0 mm 0.00 in0.0 mm 0.06 in1.5 mm
10:30 AM 43.7°F6.5°C 35.6°F2.0°C 73% 6.4 mph WSW10.3 kmh WSW 9.2 mph14.8 kmh 30.69 in1039.3 mb 0.00 in0.0 mm 0.00 in0.0 mm 0.06 in1.5 mm
10:15 AM 43.5°F6.4°C 35.5°F1.9°C 73% 7.8 mph NW12.6 kmh NW 12.1 mph19.5 kmh 30.69 in1039.3 mb 0.00 in0.0 mm 0.00 in0.0 mm 0.06 in1.5 mm
10:00 AM 43.5°F6.4°C 36.1°F2.3°C 75% 6.6 mph W10.6 kmh W 14.5 mph23.3 kmh 30.69 in1039.3 mb 0.00 in0.0 mm 0.00 in0.0 mm 0.06 in1.5 mm
09:45 AM 42.8°F6.0°C 35.4°F1.9°C 75% 9.4 mph NW15.1 kmh NW 13.6 mph21.9 kmh 30.69 in1039.3 mb 0.00 in0.0 mm 0.00 in0.0 mm 0.06 in1.5 mm
09:30 AM 42.6°F5.9°C 35.6°F2.0°C 76% 7.7 mph WSW12.4 kmh WSW 11.4 mph18.3 kmh 30.68 in1038.9 mb 0.00 in0.0 mm 0.00 in0.0 mm 0.06 in1.5 mm
09:15 AM 42.3°F5.7°C 35.9°F2.2°C 78% 7.9 mph WNW12.7 kmh WNW 12.1 mph19.5 kmh 30.68 in1038.9 mb 0.00 in0.0 mm 0.00 in0.0 mm 0.06 in1.5 mm
09:00 AM 41.9°F5.5°C 35.6°F2.0°C 78% 6.9 mph W11.1 kmh W 9.8 mph15.8 kmh 30.68 in1038.9 mb 0.00 in0.0 mm 0.00 in0.0 mm 0.06 in1.5 mm
08:45 AM 41.9°F5.5°C 35.9°F2.2°C 79% 7.1 mph NW11.4 kmh NW 9.8 mph15.8 kmh 30.68 in1038.9 mb 0.00 in0.0 mm 0.00 in0.0 mm 0.06 in1.5 mm
08:30 AM 41.9°F5.5°C 36.2°F2.3°C 80% 7.9 mph WSW12.7 kmh WSW 10.7 mph17.2 kmh 30.67 in1038.6 mb 0.00 in0.0 mm 0.00 in0.0 mm 0.06 in1.5 mm
08:15 AM 41.9°F5.5°C 36.2°F2.3°C 80% 6.0 mph NW9.7 kmh NW 9.8 mph15.8 kmh 30.67 in1038.6 mb 0.00 in0.0 mm 0.00 in0.0 mm 0.06 in1.5 mm
08:00 AM 41.9°F5.5°C 36.5°F2.5°C 81% 6.6 mph WNW10.6 kmh WNW 8.3 mph13.4 kmh 30.67 in1038.6 mb 0.00 in0.0 mm 0.00 in0.0 mm 0.06 in1.5 mm
07:45 AM 41.9°F5.5°C 36.5°F2.5°C 81% 6.3 mph NNW10.1 kmh NNW 10.7 mph17.2 kmh 30.67 in1038.6 mb 0.00 in0.0 mm 0.00 in0.0 mm 0.06 in1.5 mm
07:30 AM 42.1°F5.6°C 36.7°F2.6°C 81% 5.5 mph SW8.9 kmh SW 8.3 mph13.4 kmh 30.66 in1038.3 mb 0.00 in0.0 mm 0.00 in0.0 mm 0.06 in1.5 mm
07:15 AM 42.4°F5.8°C 36.7°F2.6°C 80% 5.8 mph W9.3 kmh W 9.2 mph14.8 kmh 30.66 in1038.3 mb 0.00 in0.0 mm 0.00 in0.0 mm 0.06 in1.5 mm
07:00 AM 42.8°F6.0°C 37.1°F2.8°C 80% 5.1 mph SW8.2 kmh SW 6.9 mph11.1 kmh 30.66 in1038.3 mb 0.00 in0.0 mm 0.00 in0.0 mm 0.06 in1.5 mm
06:45 AM 43.2°F6.2°C 37.4°F3.0°C 80% 6.7 mph W10.8 kmh W 9.2 mph14.8 kmh 30.66 in1038.3 mb 0.00 in0.0 mm 0.00 in0.0 mm 0.06 in1.5 mm
06:30 AM 43.2°F6.2°C 37.7°F3.2°C 81% 7.0 mph N11.3 kmh N 9.2 mph14.8 kmh 30.66 in1038.3 mb 0.00 in0.0 mm 0.00 in0.0 mm 0.06 in1.5 mm
06:15 AM 43.2°F6.2°C 37.7°F3.2°C 81% 6.3 mph NNW10.1 kmh NNW 9.8 mph15.8 kmh 30.66 in1038.3 mb 0.00 in0.0 mm 0.00 in0.0 mm 0.06 in1.5 mm
06:00 AM 43.2°F6.2°C 37.7°F3.2°C 81% 6.8 mph NNW10.9 kmh NNW 9.8 mph15.8 kmh 30.65 in1037.9 mb 0.00 in0.0 mm 0.00 in0.0 mm 0.06 in1.5 mm
05:45 AM 43.3°F6.3°C 37.9°F3.3°C 81% 7.3 mph NW11.7 kmh NW 10.7 mph17.2 kmh 30.65 in1037.9 mb 0.00 in0.0 mm 0.00 in0.0 mm 0.06 in1.5 mm
05:30 AM 43.5°F6.4°C 38.1°F3.4°C 81% 6.1 mph W9.8 kmh W 9.8 mph15.8 kmh 30.64 in1037.6 mb 0.00 in0.0 mm 0.00 in0.0 mm 0.06 in1.5 mm
05:15 AM 43.3°F6.3°C 38.2°F3.4°C 82% 7.1 mph NW11.4 kmh NW 12.1 mph19.5 kmh 30.65 in1037.9 mb 0.00 in0.0 mm 0.00 in0.0 mm 0.06 in1.5 mm
05:00 AM 43.3°F6.3°C 38.5°F3.6°C 83% 5.2 mph WSW8.4 kmh WSW 8.3 mph13.4 kmh 30.65 in1037.9 mb 0.00 in0.0 mm 0.00 in0.0 mm 0.06 in1.5 mm
04:45 AM 43.7°F6.5°C 38.9°F3.8°C 83% 5.8 mph NNW9.3 kmh NNW 7.6 mph12.2 kmh 30.64 in1037.6 mb 0.00 in0.0 mm 0.00 in0.0 mm 0.06 in1.5 mm
04:30 AM 43.7°F6.5°C 38.6°F3.7°C 82% 6.0 mph SSW9.7 kmh SSW 9.8 mph15.8 kmh 30.64 in1037.6 mb 0.00 in0.0 mm 0.00 in0.0 mm 0.06 in1.5 mm
04:15 AM 43.7°F6.5°C 38.6°F3.7°C 82% 4.2 mph W6.8 kmh W 7.6 mph12.2 kmh 30.64 in1037.6 mb 0.00 in0.0 mm 0.00 in0.0 mm 0.06 in1.5 mm
04:00 AM 43.9°F6.6°C 38.7°F3.7°C 82% 6.1 mph NNW9.8 kmh NNW 9.8 mph15.8 kmh 30.64 in1037.6 mb 0.00 in0.0 mm 0.00 in0.0 mm 0.06 in1.5 mm
03:45 AM 44.1°F6.7°C 38.9°F3.8°C 82% 5.4 mph NNW8.7 kmh NNW 9.2 mph14.8 kmh 30.64 in1037.6 mb 0.00 in0.0 mm 0.00 in0.0 mm 0.06 in1.5 mm
03:30 AM 43.9°F6.6°C 38.4°F3.6°C 81% 6.1 mph NNW9.8 kmh NNW 9.2 mph14.8 kmh 30.64 in1037.6 mb 0.00 in0.0 mm 0.00 in0.0 mm 0.06 in1.5 mm
03:15 AM 43.9°F6.6°C 38.4°F3.6°C 81% 5.6 mph NW9.0 kmh NW 6.9 mph11.1 kmh 30.64 in1037.6 mb 0.00 in0.0 mm 0.00 in0.0 mm 0.06 in1.5 mm
03:00 AM 44.1°F6.7°C 38.6°F3.7°C 81% 7.7 mph NNW12.4 kmh NNW 12.1 mph19.5 kmh 30.65 in1037.9 mb 0.00 in0.0 mm 0.00 in0.0 mm 0.06 in1.5 mm
02:45 AM 44.1°F6.7°C 38.6°F3.7°C 81% 6.1 mph N9.8 kmh N 7.6 mph12.2 kmh 30.65 in1037.9 mb 0.00 in0.0 mm 0.00 in0.0 mm 0.06 in1.5 mm
02:30 AM 44.1°F6.7°C 38.6°F3.7°C 81% 5.4 mph N8.7 kmh N 8.3 mph13.4 kmh 30.64 in1037.6 mb 0.00 in0.0 mm 0.00 in0.0 mm 0.06 in1.5 mm
02:15 AM 44.2°F6.8°C 38.5°F3.6°C 80% 6.2 mph NNW10.0 kmh NNW 8.3 mph13.4 kmh 30.64 in1037.6 mb 0.00 in0.0 mm 0.00 in0.0 mm 0.06 in1.5 mm
02:00 AM 44.2°F6.8°C 38.5°F3.6°C 80% 5.9 mph NW9.5 kmh NW 8.3 mph13.4 kmh 30.64 in1037.6 mb 0.00 in0.0 mm 0.00 in0.0 mm 0.06 in1.5 mm
01:45 AM 44.1°F6.7°C 38.6°F3.7°C 81% 6.7 mph N10.8 kmh N 9.8 mph15.8 kmh 30.64 in1037.6 mb 0.00 in0.0 mm 0.00 in0.0 mm 0.06 in1.5 mm
01:30 AM 43.7°F6.5°C 38.6°F3.7°C 82% 6.4 mph NNW10.3 kmh NNW 9.2 mph14.8 kmh 30.64 in1037.6 mb 0.00 in0.0 mm 0.00 in0.0 mm 0.06 in1.5 mm
01:15 AM 43.7°F6.5°C 38.9°F3.8°C 83% 5.8 mph NNW9.3 kmh NNW 7.6 mph12.2 kmh 30.65 in1037.9 mb 0.05 in1.3 mm 0.00 in0.0 mm 0.06 in1.5 mm
01:00 AM 43.5°F6.4°C 38.7°F3.7°C 83% 5.2 mph NNW8.4 kmh NNW 7.6 mph12.2 kmh 30.65 in1037.9 mb 0.06 in1.5 mm 0.00 in0.0 mm 0.06 in1.5 mm
12:45 AM 43.7°F6.5°C 38.9°F3.8°C 83% 3.1 mph NNW5.0 kmh NNW 4.5 mph7.2 kmh 30.65 in1037.9 mb 0.06 in1.5 mm 0.00 in0.0 mm 0.06 in1.5 mm
12:30 AM 43.7°F6.5°C 38.9°F3.8°C 83% 0.4 mph NNW0.6 kmh NNW 1.6 mph2.6 kmh 30.65 in1037.9 mb 0.06 in1.5 mm 0.20 in5.1 mm 0.06 in1.5 mm
12:15 AM 43.9°F6.6°C 39.1°F3.9°C 83% 1.8 mph N2.9 kmh N 3.1 mph5.0 kmh 30.65 in1037.9 mb 0.01 in0.3 mm 0.04 in1.0 mm 0.01 in0.3 mm
12:00 AM 44.1°F6.7°C 39.2°F4.0°C 83% 2.0 mph N3.2 kmh N 3.1 mph5.0 kmh 30.65 in1037.9 mb 0.00 in0.0 mm 0.00 in0.0 mm 0.00 in0.0 mm